Time;durP1;ratioP1;P1;durP2;ratioP2;P2;SDS_P1;SDS_P2;PMS_P1;PMS_P2;Temp;Humidity;BMP_temperature;BMP_pressure;BME280_temperature;BME280_humidity;BME280_pressure;Samples;Min_cycle;Max_cycle;Signal;HPM_P1;HPM_P2
2022/08/03 00:01:28;;;;;;;8.60;4.70;;;19.50;99.90;;;;;;5017417;28;20060;-60
2022/08/03 00:03:54;;;;;;;11.02;4.70;;;19.50;99.90;;;;;;5018661;28;20277;-59
2022/08/03 00:06:20;;;;;;;9.90;4.65;;;19.50;99.90;;;;;;5022750;28;20127;-61
2022/08/03 00:08:45;;;;;;;13.60;4.95;;;19.50;99.90;;;;;;5012793;28;20073;-60
2022/08/03 00:11:11;;;;;;;7.57;4.30;;;19.40;99.90;;;;;;5020876;28;20519;-60
2022/08/03 00:13:37;;;;;;;8.30;4.10;;;19.40;99.90;;;;;;5019140;28;20519;-58
2022/08/03 00:16:03;;;;;;;13.55;4.72;;;19.40;99.90;;;;;;5015727;28;20041;-58
2022/08/03 00:18:29;;;;;;;8.02;3.75;;;19.40;99.90;;;;;;5017598;28;20044;-59
2022/08/03 00:20:55;;;;;;;8.52;3.63;;;19.30;99.90;;;;;;5011829;28;20038;-59
2022/08/03 00:23:20;;;;;;;11.52;4.57;;;19.40;99.90;;;;;;5013961;28;20038;-59
2022/08/03 00:25:46;;;;;;;11.30;4.10;;;19.40;99.90;;;;;;5006620;28;20049;-60
2022/08/03 00:28:12;;;;;;;6.78;3.35;;;19.30;99.90;;;;;;5015601;28;20650;-59
2022/08/03 00:30:38;;;;;;;9.43;3.88;;;19.40;99.90;;;;;;5007687;28;20041;-60
2022/08/03 00:33:04;;;;;;;9.80;4.70;;;19.40;99.90;;;;;;5009142;28;20209;-60
2022/08/03 00:35:30;;;;;;;8.43;4.15;;;19.40;99.90;;;;;;5008012;28;20041;-60
2022/08/03 00:37:56;;;;;;;6.85;4.07;;;19.40;99.90;;;;;;5007456;28;20044;-60
2022/08/03 00:40:22;;;;;;;7.28;4.15;;;19.40;99.90;;;;;;5014655;28;20037;-59
2022/08/03 00:42:59;;;;;;;9.38;4.60;;;19.40;99.90;;;;;;5012201;28;20041;-60
2022/08/03 00:45:36;;;;;;;7.35;4.10;;;19.40;99.90;;;;;;5017602;28;20113;-60
2022/08/03 00:48:04;;;;;;;8.23;4.05;;;19.40;99.90;;;;;;4992807;28;20691;-59
2022/08/03 00:50:33;;;;;;;10.88;4.50;;;19.30;99.90;;;;;;5021142;28;20033;-60
2022/08/03 00:53:00;;;;;;;7.57;3.97;;;19.30;99.90;;;;;;5010994;28;20049;-60
2022/08/03 00:55:26;;;;;;;8.10;4.00;;;19.30;99.90;;;;;;5011259;28;20042;-59
2022/08/03 00:57:52;;;;;;;9.27;4.32;;;19.30;99.90;;;;;;5014728;28;20049;-60
2022/08/03 01:00:21;;;;;;;5.18;3.45;;;19.30;99.90;;;;;;5017309;28;20042;-60
2022/08/03 01:02:47;;;;;;;11.40;3.97;;;19.30;99.90;;;;;;5012067;28;20052;-59
2022/08/03 01:05:13;;;;;;;8.40;4.38;;;19.30;99.90;;;;;;5014237;28;20036;-60
2022/08/03 01:08:12;;;;;;;8.63;4.07;;;19.30;99.90;;;;;;5018844;28;20109;-60
2022/08/03 01:10:53;;;;;;;8.60;3.80;;;19.20;99.90;;;;;;5013620;28;20080;-60
2022/08/03 01:13:21;;;;;;;9.25;3.75;;;19.20;99.90;;;;;;5012914;28;20128;-58
2022/08/03 01:16:14;;;;;;;7.75;4.15;;;19.20;99.90;;;;;;5013130;28;20041;-60
2022/08/03 01:19:16;;;;;;;9.95;4.07;;;19.20;99.90;;;;;;5013992;28;20049;-59
2022/08/03 01:22:09;;;;;;;6.95;3.85;;;19.10;99.90;;;;;;5052435;22;20046;-55
2022/08/03 01:24:53;;;;;;;6.22;3.72;;;19.10;99.90;;;;;;5027028;28;20531;-58
2022/08/03 01:27:44;;;;;;;9.30;3.67;;;19.10;99.90;;;;;;5017846;28;20406;-57
2022/08/03 01:30:11;;;;;;;10.52;4.10;;;19.10;99.90;;;;;;5023254;28;20407;-58
2022/08/03 01:33:21;;;;;;;7.75;3.80;;;19.00;99.90;;;;;;5018565;28;20045;-58
2022/08/03 01:35:53;;;;;;;7.95;3.50;;;19.00;99.90;;;;;;4988273;28;20045;-58
2022/08/03 01:38:28;;;;;;;6.22;3.42;;;19.00;99.90;;;;;;4990557;28;20231;-57
2022/08/03 01:40:55;;;;;;;6.63;3.30;;;19.00;99.90;;;;;;4994625;28;20557;-58
2022/08/03 01:43:28;;;;;;;6.05;3.38;;;19.00;99.90;;;;;;5016068;28;20065;-56
2022/08/03 01:45:56;;;;;;;6.45;3.70;;;19.00;99.90;;;;;;4998026;28;20075;-57
2022/08/03 01:48:23;;;;;;;7.47;3.40;;;19.00;99.90;;;;;;5031545;28;20052;-57
2022/08/03 01:50:51;;;;;;;10.60;3.95;;;19.00;99.90;;;;;;5010642;28;20052;-58
2022/08/03 01:53:19;;;;;;;6.35;2.97;;;18.90;99.90;;;;;;4997206;28;21137;-58
2022/08/03 01:55:47;;;;;;;7.68;3.63;;;18.90;99.90;;;;;;5011033;28;20076;-57
2022/08/03 01:58:15;;;;;;;4.32;3.05;;;18.90;99.90;;;;;;4996054;28;20079;-57
2022/08/03 02:00:42;;;;;;;8.95;3.83;;;18.90;99.90;;;;;;4981955;28;20114;-56
2022/08/03 02:03:11;;;;;;;8.65;3.85;;;18.80;99.90;;;;;;5030306;28;20048;-58
2022/08/03 02:05:39;;;;;;;9.77;3.72;;;18.80;99.90;;;;;;5003167;28;20037;-57
2022/08/03 02:08:09;;;;;;;10.45;3.53;;;18.90;99.90;;;;;;5013549;28;20522;-57
2022/08/03 02:10:36;;;;;;;9.80;3.35;;;18.80;99.90;;;;;;5025313;28;20045;-56
2022/08/03 02:13:05;;;;;;;7.20;3.28;;;18.80;99.90;;;;;;5006948;28;20063;-57
2022/08/03 02:15:34;;;;;;;6.35;3.10;;;18.80;99.90;;;;;;5043043;28;20505;-57
2022/08/03 02:18:01;;;;;;;10.75;3.72;;;18.80;99.90;;;;;;5019998;28;20505;-58
2022/08/03 02:20:29;;;;;;;8.95;3.10;;;18.80;99.90;;;;;;5018358;28;20044;-58
2022/08/03 02:22:54;;;;;;;7.78;3.28;;;18.70;99.90;;;;;;5024009;28;20040;-59
2022/08/03 02:25:20;;;;;;;8.70;2.97;;;18.80;99.90;;;;;;5019938;28;20049;-57
2022/08/03 02:27:58;;;;;;;9.18;3.67;;;18.90;99.90;;;;;;5027631;28;20053;-59
2022/08/03 02:30:35;;;;;;;7.80;3.80;;;18.70;99.90;;;;;;5032579;28;21225;-59
2022/08/03 02:33:01;;;;;;;6.78;3.97;;;18.70;99.90;;;;;;5011751;28;20136;-58
2022/08/03 02:35:29;;;;;;;4.35;2.67;;;18.70;99.90;;;;;;4981577;28;20094;-58
2022/08/03 02:37:59;;;;;;;8.55;3.47;;;18.70;99.90;;;;;;5022067;28;20045;-58
2022/08/03 02:40:28;;;;;;;7.45;2.75;;;18.70;99.90;;;;;;5012462;28;20435;-57
2022/08/03 02:42:57;;;;;;;10.20;3.30;;;18.70;99.90;;;;;;5016936;28;20099;-58
2022/08/03 02:45:24;;;;;;;12.63;3.28;;;18.70;99.90;;;;;;5031851;28;20043;-59
2022/08/03 02:47:54;;;;;;;8.13;2.85;;;18.70;99.90;;;;;;5014315;28;20048;-59
2022/08/03 02:50:21;;;;;;;8.52;3.30;;;18.70;99.90;;;;;;5033051;28;20148;-58
2022/08/03 02:52:48;;;;;;;6.05;2.80;;;18.70;99.90;;;;;;4997320;28;20538;-59
2022/08/03 02:55:16;;;;;;;8.02;2.75;;;18.70;99.90;;;;;;4999593;28;20500;-57
2022/08/03 02:57:43;;;;;;;8.27;3.28;;;18.60;99.90;;;;;;5019379;28;20049;-58
2022/08/03 03:00:09;;;;;;;9.65;2.80;;;18.60;99.90;;;;;;5025244;28;20165;-59
2022/08/03 03:02:36;;;;;;;9.40;2.95;;;18.60;99.90;;;;;;5007236;28;20075;-58
2022/08/03 03:05:03;;;;;;;8.52;2.55;;;18.60;99.90;;;;;;5023450;28;20036;-57
2022/08/03 03:07:30;;;;;;;8.70;3.13;;;18.60;99.90;;;;;;5020156;28;20111;-59
2022/08/03 03:09:56;;;;;;;9.52;2.85;;;18.60;99.90;;;;;;5014007;28;20045;-59
2022/08/03 03:12:22;;;;;;;13.68;2.85;;;18.60;99.90;;;;;;5025792;28;20044;-58
2022/08/03 03:14:48;;;;;;;8.50;3.45;;;18.60;99.90;;;;;;5020524;28;20517;-58
2022/08/03 03:17:15;;;;;;;10.18;3.15;;;18.60;99.90;;;;;;5019384;28;20037;-59
2022/08/03 03:19:44;;;;;;;9.15;3.53;;;18.50;99.90;;;;;;5019103;28;20575;-59
2022/08/03 03:22:11;;;;;;;6.90;3.05;;;18.50;99.90;;;;;;5017841;28;20467;-58
2022/08/03 03:24:38;;;;;;;6.70;3.05;;;18.50;99.90;;;;;;5023175;28;20439;-59
2022/08/03 03:27:04;;;;;;;10.70;3.17;;;18.50;99.90;;;;;;5004048;28;20106;-58
2022/08/03 03:29:32;;;;;;;11.23;3.08;;;18.50;99.90;;;;;;5017876;28;20488;-59
2022/08/03 03:31:58;;;;;;;15.70;3.03;;;18.50;99.90;;;;;;5018889;28;20053;-57
2022/08/03 03:34:23;;;;;;;7.55;2.83;;;18.50;99.90;;;;;;4993022;28;20091;-57
2022/08/03 03:36:49;;;;;;;10.70;3.15;;;18.50;99.90;;;;;;5023747;28;20041;-57
2022/08/03 03:39:15;;;;;;;10.13;3.42;;;18.50;99.90;;;;;;5007164;28;20044;-59
2022/08/03 03:41:41;;;;;;;12.18;3.35;;;18.50;99.90;;;;;;5008976;28;20051;-58
2022/08/03 03:44:07;;;;;;;7.70;3.25;;;18.50;99.90;;;;;;5019972;28;20041;-58
2022/08/03 03:46:33;;;;;;;7.85;2.92;;;18.50;99.90;;;;;;5036423;28;20051;-58
2022/08/03 03:48:58;;;;;;;8.23;3.00;;;18.50;99.90;;;;;;5002097;28;20099;-58
2022/08/03 03:51:24;;;;;;;8.32;2.88;;;18.40;99.90;;;;;;5038264;28;20135;-57
2022/08/03 03:53:58;;;;;;;10.40;3.53;;;18.50;99.90;;;;;;5025065;28;20037;-57
2022/08/03 03:56:24;;;;;;;9.98;2.88;;;18.50;99.90;;;;;;5035952;28;20061;-58
2022/08/03 03:58:50;;;;;;;8.75;3.50;;;18.40;99.90;;;;;;5017024;28;20611;-58
2022/08/03 04:01:16;;;;;;;14.23;4.18;;;18.40;99.90;;;;;;5027192;28;20052;-58
2022/08/03 04:03:42;;;;;;;9.77;2.90;;;18.40;99.90;;;;;;5008757;28;20072;-58
2022/08/03 04:11:38;;;;;;;;;;;18.40;99.90;;;;;;5022142;28;20136;-58
2022/08/03 04:14:06;;;;;;;11.50;3.17;;;18.40;99.90;;;;;;5021007;28;19916;-59
2022/08/03 04:16:36;;;;;;;12.98;3.45;;;18.30;99.90;;;;;;5020833;28;20048;-58
2022/08/03 04:19:06;;;;;;;9.05;3.13;;;18.40;99.90;;;;;;5009557;28;20079;-57
2022/08/03 04:21:34;;;;;;;9.55;3.53;;;18.30;99.90;;;;;;5016037;28;20172;-59
2022/08/03 04:24:03;;;;;;;7.88;3.13;;;18.10;99.90;;;;;;5001234;28;20039;-58
2022/08/03 04:26:35;;;;;;;8.25;2.80;;;18.30;99.90;;;;;;5026803;28;20072;-58
2022/08/03 04:29:03;;;;;;;7.85;2.92;;;18.30;99.90;;;;;;5014906;28;20884;-58
2022/08/03 04:31:29;;;;;;;7.47;3.03;;;18.40;99.90;;;;;;5018813;28;20037;-58
2022/08/03 04:33:55;;;;;;;11.00;3.67;;;18.70;99.90;;;;;;5010579;28;20067;-57
2022/08/03 04:36:25;;;;;;;8.13;3.38;;;18.40;99.90;;;;;;5019551;28;20041;-57
2022/08/03 04:39:00;;;;;;;6.80;2.80;;;18.40;99.90;;;;;;5017739;28;20033;-58
2022/08/03 04:41:29;;;;;;;12.55;3.80;;;18.40;99.90;;;;;;5015227;28;20124;-55
2022/08/03 04:43:57;;;;;;;10.73;3.90;;;18.40;99.90;;;;;;5001775;28;20112;-58
2022/08/03 04:46:26;;;;;;;14.50;4.15;;;18.40;99.90;;;;;;5008311;28;20053;-58
2022/08/03 04:48:53;;;;;;;10.23;4.07;;;18.40;99.90;;;;;;5011295;28;20130;-58
2022/08/03 04:51:19;;;;;;;8.40;3.50;;;18.40;99.90;;;;;;5018727;28;20419;-58
2022/08/03 04:53:45;;;;;;;9.65;3.78;;;18.40;99.90;;;;;;5024624;28;20045;-58
2022/08/03 04:56:11;;;;;;;7.93;3.15;;;18.50;99.90;;;;;;5004064;28;20512;-57
2022/08/03 04:58:36;;;;;;;10.45;3.72;;;18.50;99.90;;;;;;5017621;28;20037;-58
2022/08/03 05:01:02;;;;;;;10.82;3.95;;;18.50;99.90;;;;;;4995020;28;20485;-58
2022/08/03 05:03:28;;;;;;;7.57;3.35;;;18.50;99.90;;;;;;4997973;28;20082;-58
2022/08/03 05:05:55;;;;;;;8.38;3.78;;;18.50;99.90;;;;;;5021096;28;20150;-58
2022/08/03 05:08:20;;;;;;;9.82;4.05;;;18.90;99.90;;;;;;5013983;28;20037;-58
2022/08/03 05:10:47;;;;;;;12.70;4.18;;;18.60;99.90;;;;;;5018925;28;20392;-59
2022/08/03 05:13:13;;;;;;;9.95;3.90;;;18.60;99.90;;;;;;5019038;28;20061;-58
2022/08/03 05:15:40;;;;;;;9.38;3.70;;;18.70;99.90;;;;;;5004806;28;20127;-58
2022/08/03 05:18:06;;;;;;;6.60;3.70;;;18.70;99.90;;;;;;5014166;28;20037;-58
2022/08/03 05:20:32;;;;;;;17.98;4.78;;;18.70;99.90;;;;;;5014059;28;20052;-58
2022/08/03 05:23:00;;;;;;;14.68;4.20;;;18.70;99.90;;;;;;5022503;28;20041;-59
2022/08/03 05:25:26;;;;;;;15.95;6.40;;;18.80;99.90;;;;;;5011959;28;20041;-59
2022/08/03 05:27:52;;;;;;;11.07;3.75;;;18.80;99.90;;;;;;5012947;28;20283;-59
2022/08/03 05:30:18;;;;;;;8.52;3.63;;;18.80;99.90;;;;;;5029241;28;20040;-58
2022/08/03 05:32:44;;;;;;;13.82;4.13;;;18.90;99.90;;;;;;5009004;28;20999;-58
2022/08/03 05:35:10;;;;;;;10.07;3.97;;;18.90;99.90;;;;;;5007684;28;20127;-59
2022/08/03 05:37:36;;;;;;;11.30;3.85;;;19.00;99.90;;;;;;5009221;28;20377;-59
2022/08/03 05:40:02;;;;;;;13.75;4.07;;;19.10;99.90;;;;;;5038442;28;20128;-60
2022/08/03 05:42:28;;;;;;;12.68;4.53;;;19.10;99.90;;;;;;5022222;28;20360;-61
2022/08/03 05:44:54;;;;;;;9.70;3.45;;;19.20;99.90;;;;;;5004774;28;20040;-58
2022/08/03 05:47:19;;;;;;;14.02;4.10;;;19.20;99.90;;;;;;5033083;28;20052;-58
2022/08/03 05:49:46;;;;;;;13.10;4.47;;;19.30;99.90;;;;;;5018574;28;20084;-57
2022/08/03 05:52:11;;;;;;;12.73;4.78;;;19.40;99.90;;;;;;5034841;28;20029;-57
2022/08/03 05:54:37;;;;;;;9.70;3.65;;;19.40;99.90;;;;;;5003679;28;20051;-60
2022/08/03 05:57:03;;;;;;;8.90;4.20;;;19.40;99.90;;;;;;5022874;28;20113;-60
2022/08/03 05:59:29;;;;;;;16.20;4.22;;;19.50;99.90;;;;;;5004896;28;20041;-58
2022/08/03 06:01:54;;;;;;;10.52;3.92;;;19.60;99.90;;;;;;5018708;28;20446;-58
2022/08/03 06:04:20;;;;;;;10.82;4.28;;;19.70;99.90;;;;;;5010565;28;20045;-58
2022/08/03 06:06:47;;;;;;;11.30;4.55;;;19.70;99.90;;;;;;4995166;28;20045;-58
2022/08/03 06:09:12;;;;;;;12.88;4.60;;;19.80;99.90;;;;;;5017722;28;20053;-57
2022/08/03 06:11:40;;;;;;;10.93;4.43;;;19.90;99.90;;;;;;5027919;28;20044;-60
2022/08/03 06:14:05;;;;;;;11.02;4.03;;;19.90;99.90;;;;;;5021064;28;20080;-57
2022/08/03 06:16:32;;;;;;;14.52;4.38;;;20.00;99.90;;;;;;5018705;28;20076;-56
2022/08/03 06:18:58;;;;;;;13.00;4.75;;;20.10;99.90;;;;;;5038965;28;20046;-57
2022/08/03 06:21:24;;;;;;;12.13;4.10;;;20.10;99.90;;;;;;5011594;28;20029;-58
2022/08/03 06:23:49;;;;;;;16.40;4.18;;;20.20;99.90;;;;;;5014896;28;20045;-58
2022/08/03 06:26:15;;;;;;;13.93;4.07;;;20.30;99.90;;;;;;5022852;28;20042;-60
2022/08/03 06:28:43;;;;;;;12.95;4.30;;;20.30;99.90;;;;;;5015717;28;20049;-60
2022/08/03 06:31:09;;;;;;;13.57;4.65;;;20.30;99.90;;;;;;5024405;28;20090;-58
2022/08/03 06:33:35;;;;;;;14.30;4.90;;;20.40;99.90;;;;;;5022283;28;20045;-58
2022/08/03 06:36:01;;;;;;;8.73;4.43;;;20.50;99.90;;;;;;5022998;28;20092;-57
2022/08/03 06:38:28;;;;;;;12.77;5.28;;;20.60;99.90;;;;;;5021561;28;20049;-58
2022/08/03 06:40:53;;;;;;;15.60;5.35;;;20.70;99.90;;;;;;5033904;28;20535;-60
2022/08/03 06:43:19;;;;;;;11.98;5.47;;;20.80;99.90;;;;;;5026971;28;22286;-60
2022/08/03 06:45:45;;;;;;;12.70;5.43;;;20.90;99.90;;;;;;5017912;28;20248;-58
2022/08/03 06:48:11;;;;;;;14.63;6.38;;;20.90;99.90;;;;;;4996477;28;20037;-57
2022/08/03 06:50:40;;;;;;;13.80;6.68;;;21.00;99.90;;;;;;5017362;28;20041;-57
2022/08/03 06:53:07;;;;;;;17.45;6.20;;;21.10;99.90;;;;;;5009812;28;20135;-58
2022/08/03 06:55:34;;;;;;;12.80;5.80;;;21.10;99.90;;;;;;5010314;28;20033;-59
2022/08/03 06:57:59;;;;;;;15.68;6.55;;;21.20;99.90;;;;;;4992180;28;20087;-59
2022/08/03 07:00:26;;;;;;;11.00;5.35;;;21.10;99.90;;;;;;5025385;28;20521;-58
2022/08/03 07:02:53;;;;;;;14.40;5.82;;;21.10;99.90;;;;;;4997925;28;20045;-57
2022/08/03 07:05:20;;;;;;;15.13;5.43;;;21.10;99.90;;;;;;5025699;28;20484;-58
2022/08/03 07:07:45;;;;;;;14.75;5.07;;;21.10;99.90;;;;;;5006869;28;20045;-57
2022/08/03 07:10:11;;;;;;;11.25;4.43;;;21.10;99.90;;;;;;5017246;28;20102;-61
2022/08/03 07:12:38;;;;;;;15.75;5.40;;;21.10;99.90;;;;;;5013349;28;20040;-59
2022/08/03 07:15:05;;;;;;;18.58;6.63;;;21.10;99.90;;;;;;5017503;28;20491;-58
2022/08/03 07:17:32;;;;;;;17.33;6.25;;;21.10;99.90;;;;;;4999281;28;20073;-58
2022/08/03 07:19:59;;;;;;;17.85;6.32;;;21.00;99.90;;;;;;5010155;28;20234;-57
2022/08/03 07:22:25;;;;;;;17.30;6.13;;;21.00;99.90;;;;;;5031568;22;20048;-61
2022/08/03 07:24:50;;;;;;;13.35;6.05;;;21.10;99.90;;;;;;5031388;28;20048;-62
2022/08/03 07:27:16;;;;;;;17.58;6.15;;;21.10;99.90;;;;;;5033406;28;20415;-61
2022/08/03 07:29:42;;;;;;;19.52;5.95;;;21.10;99.90;;;;;;5032171;28;20774;-61
2022/08/03 07:32:07;;;;;;;13.32;5.22;;;21.10;99.90;;;;;;5029953;28;20041;-61
2022/08/03 07:34:33;;;;;;;20.25;6.00;;;21.10;99.90;;;;;;5032587;28;20499;-61
2022/08/03 07:36:59;;;;;;;17.25;6.50;;;21.10;99.90;;;;;;5037337;28;20052;-61
2022/08/03 07:39:25;;;;;;;20.25;7.18;;;21.20;99.90;;;;;;5035521;28;20045;-61
2022/08/03 07:41:50;;;;;;;21.58;7.03;;;21.30;99.90;;;;;;5038019;28;20037;-61
2022/08/03 07:44:19;;;;;;;21.60;7.97;;;21.50;99.90;;;;;;5019152;28;20131;-61
2022/08/03 07:46:46;;;;;;;15.88;7.80;;;21.50;99.90;;;;;;5024699;28;20065;-60
2022/08/03 07:49:12;;;;;;;17.33;7.25;;;21.70;99.90;;;;;;5025639;28;20040;-61
2022/08/03 07:51:38;;;;;;;18.70;9.10;;;21.80;99.90;;;;;;5046347;28;20040;-61
2022/08/03 07:54:04;;;;;;;16.48;8.77;;;21.90;99.90;;;;;;5045566;28;20033;-62
2022/08/03 07:56:30;;;;;;;20.20;8.25;;;22.00;99.90;;;;;;5021385;28;20041;-62
2022/08/03 07:58:56;;;;;;;22.48;8.15;;;22.10;99.90;;;;;;5022304;28;20057;-61
2022/08/03 08:01:23;;;;;;;15.10;8.13;;;22.30;99.90;;;;;;5043081;28;20163;-61
2022/08/03 08:03:49;;;;;;;19.35;8.38;;;22.50;99.90;;;;;;5036176;28;20041;-61
2022/08/03 08:06:16;;;;;;;18.85;9.32;;;22.50;99.90;;;;;;5036947;28;20047;-61
2022/08/03 08:08:42;;;;;;;17.20;8.32;;;22.50;99.90;;;;;;5043212;28;20345;-60
2022/08/03 08:11:08;;;;;;;18.92;9.25;;;22.60;99.90;;;;;;5039760;28;20041;-61
2022/08/03 08:13:36;;;;;;;19.98;8.68;;;22.60;99.90;;;;;;5040156;28;20708;-63
2022/08/03 08:16:02;;;;;;;20.38;9.82;;;22.60;99.90;;;;;;5042392;28;20048;-62
2022/08/03 08:18:31;;;;;;;16.80;9.15;;;22.60;99.90;;;;;;5033567;28;20425;-62
2022/08/03 08:20:57;;;;;;;19.90;9.02;;;22.80;99.90;;;;;;5021397;28;20041;-62
2022/08/03 08:23:23;;;;;;;17.65;9.30;;;23.00;99.90;;;;;;5022797;28;20048;-61
2022/08/03 08:25:50;;;;;;;20.20;9.40;;;23.30;99.90;;;;;;5040359;28;20049;-63
2022/08/03 08:28:20;;;;;;;19.38;9.32;;;23.30;99.90;;;;;;5041771;28;20044;-61
2022/08/03 08:30:46;;;;;;;25.58;10.40;;;23.30;99.90;;;;;;5043004;28;20137;-61
2022/08/03 08:33:13;;;;;;;19.38;9.25;;;23.30;99.90;;;;;;5043984;28;20169;-61
2022/08/03 08:35:38;;;;;;;16.88;9.30;;;23.30;99.90;;;;;;5040855;28;20072;-62
2022/08/03 08:38:04;;;;;;;17.85;8.80;;;23.30;99.90;;;;;;5043018;28;20150;-62
2022/08/03 08:40:30;;;;;;;18.30;8.95;;;23.50;99.90;;;;;;5005809;28;20033;-62
2022/08/03 08:42:56;;;;;;;21.38;10.00;;;23.60;99.90;;;;;;5031098;28;20406;-62
2022/08/03 08:45:22;;;;;;;19.15;8.85;;;23.60;99.90;;;;;;5017303;28;20040;-62
2022/08/03 08:47:49;;;;;;;20.52;10.13;;;23.50;99.90;;;;;;5015169;28;20040;-62
2022/08/03 08:50:19;;;;;;;22.45;10.77;;;23.60;99.90;;;;;;5038159;28;20040;-61
2022/08/03 08:52:47;;;;;;;17.33;9.30;;;23.60;99.90;;;;;;5040216;28;20037;-61
2022/08/03 08:55:18;;;;;;;20.50;10.55;;;23.80;99.90;;;;;;5017453;28;20041;-61
2022/08/03 08:57:54;;;;;;;22.70;11.70;;;24.00;99.90;;;;;;5042062;28;20045;-59
2022/08/03 09:00:20;;;;;;;22.23;11.65;;;24.00;99.90;;;;;;5030875;28;20033;-61
2022/08/03 09:02:46;;;;;;;18.23;10.43;;;23.90;99.90;;;;;;5011002;28;20056;-59
2022/08/03 09:05:17;;;;;;;17.45;11.30;;;23.80;99.90;;;;;;5006526;28;20582;-58
2022/08/03 09:07:44;;;;;;;22.73;10.77;;;23.80;99.90;;;;;;5024626;28;20040;-58
2022/08/03 09:10:12;;;;;;;23.15;11.82;;;23.80;99.90;;;;;;5019128;28;20072;-60
2022/08/03 09:12:42;;;;;;;18.45;11.05;;;24.00;99.90;;;;;;5026658;28;20048;-60
2022/08/03 09:15:19;;;;;;;20.83;12.25;;;24.10;99.90;;;;;;5009760;28;20040;-60
2022/08/03 09:17:45;;;;;;;20.90;10.75;;;24.30;99.90;;;;;;5025678;28;20111;-60
2022/08/03 09:20:10;;;;;;;18.30;10.80;;;24.60;99.90;;;;;;5010933;28;20152;-61
2022/08/03 09:23:09;;;;;;;25.15;13.02;;;24.70;99.90;;;;;;5035040;28;20040;-61
2022/08/03 09:25:42;;;;;;;42.35;20.63;;;24.80;99.90;;;;;;5035688;28;20041;-61
2022/08/03 09:28:13;;;;;;;22.02;12.05;;;24.90;99.90;;;;;;5031035;28;20125;-61
2022/08/03 09:30:42;;;;;;;16.77;10.60;;;24.90;99.90;;;;;;5023387;28;20055;-61
2022/08/03 09:33:09;;;;;;;24.73;11.73;;;24.90;99.90;;;;;;5032612;28;20033;-62
2022/08/03 09:35:51;;;;;;;19.45;10.00;;;24.90;99.90;;;;;;5034309;28;20036;-61
2022/08/03 09:38:27;;;;;;;20.60;10.73;;;25.00;99.90;;;;;;5031397;28;20499;-61
2022/08/03 09:40:54;;;;;;;23.65;10.45;;;24.90;99.90;;;;;;5030828;28;20036;-62
2022/08/03 09:43:20;;;;;;;21.58;11.77;;;24.80;99.90;;;;;;5028169;28;20041;-62
2022/08/03 09:45:46;;;;;;;25.33;12.15;;;24.70;99.90;;;;;;5028946;28;20119;-62
2022/08/03 09:48:25;;;;;;;21.38;11.18;;;24.60;99.90;;;;;;5027147;28;20454;-60
2022/08/03 09:50:56;;;;;;;19.88;10.60;;;24.70;99.90;;;;;;5040178;28;20049;-62
2022/08/03 09:53:23;;;;;;;23.75;10.43;;;24.80;99.90;;;;;;5040542;28;20052;-62
2022/08/03 09:55:57;;;;;;;18.80;9.45;;;25.00;99.90;;;;;;5035869;28;20045;-62
2022/08/03 09:58:24;;;;;;;19.13;10.98;;;25.30;99.90;;;;;;5039473;28;20047;-61
2022/08/03 10:00:58;;;;;;;20.60;10.25;;;25.30;99.90;;;;;;5021296;28;20400;-62
2022/08/03 10:03:36;;;;;;;21.95;10.93;;;25.30;99.90;;;;;;5040608;28;20446;-61
2022/08/03 10:06:16;;;;;;;19.55;11.15;;;25.20;99.90;;;;;;5020251;28;20051;-61
2022/08/03 10:08:41;;;;;;;21.63;12.25;;;25.00;99.90;;;;;;5040676;28;20044;-60
2022/08/03 10:11:07;;;;;;;19.52;10.65;;;24.90;99.90;;;;;;5035346;28;20095;-61
2022/08/03 10:13:35;;;;;;;22.55;11.18;;;25.00;99.90;;;;;;5011649;28;20036;-67
2022/08/03 10:16:03;;;;;;;21.38;12.32;;;25.00;99.90;;;;;;5010378;28;20029;-62
2022/08/03 10:18:29;;;;;;;23.33;11.48;;;24.90;99.90;;;;;;5028954;28;20294;-62
2022/08/03 10:21:02;;;;;;;21.08;11.88;;;24.90;99.90;;;;;;5031607;28;20098;-60
2022/08/03 10:23:33;;;;;;;18.15;11.23;;;25.10;99.90;;;;;;5010671;28;20060;-61
2022/08/03 10:26:03;;;;;;;21.85;11.70;;;25.20;99.90;;;;;;5020681;28;20048;-63
2022/08/03 10:28:34;;;;;;;20.67;10.77;;;25.40;99.90;;;;;;4993968;28;20049;-61
2022/08/03 10:31:01;;;;;;;24.92;12.32;;;25.60;99.90;;;;;;5032144;28;21342;-63
2022/08/03 10:33:30;;;;;;;34.58;11.48;;;25.70;99.90;;;;;;5032724;28;20284;-62
2022/08/03 10:35:58;;;;;;;51.10;13.95;;;25.70;99.90;;;;;;5028084;28;20056;-62
2022/08/03 10:38:51;;;;;;;20.63;12.07;;;25.80;99.90;;;;;;5024409;28;20041;-62
2022/08/03 10:41:20;;;;;;;20.90;9.45;;;25.80;99.90;;;;;;5012338;28;20049;-62
2022/08/03 10:44:09;;;;;;;19.92;10.75;;;25.90;99.90;;;;;;5023750;28;20392;-61
2022/08/03 10:46:38;;;;;;;17.85;10.32;;;26.00;99.90;;;;;;4998846;28;20053;-62
2022/08/03 10:49:05;;;;;;;32.88;11.93;;;26.10;99.90;;;;;;5031867;28;20373;-61
2022/08/03 10:51:31;;;;;;;18.98;9.43;;;25.70;99.90;;;;;;5035100;28;20059;-59
2022/08/03 10:53:58;;;;;;;23.33;12.27;;;25.90;99.90;;;;;;5033147;28;20041;-60
2022/08/03 10:59:19;;;;;;;23.10;10.90;;;25.80;99.90;;;;;;5007616;28;20053;-60
2022/08/03 11:01:51;;;;;;;23.90;10.82;;;25.90;99.90;;;;;;5021491;28;20068;-59
2022/08/03 11:04:19;;;;;;;27.02;9.45;;;26.10;99.90;;;;;;5036031;28;20381;-59
2022/08/03 11:06:45;;;;;;;19.23;8.93;;;26.20;99.90;;;;;;5038249;28;20434;-59
2022/08/03 11:09:11;;;;;;;19.23;8.43;;;26.10;99.90;;;;;;5038963;28;20470;-59
2022/08/03 11:11:38;;;;;;;23.75;8.98;;;26.30;99.90;;;;;;5041774;28;20041;-60
2022/08/03 11:14:13;;;;;;;21.95;8.70;;;26.50;99.90;;;;;;5029096;28;20045;-61
2022/08/03 11:16:45;;;;;;;19.80;8.65;;;26.70;99.90;;;;;;5026719;28;20033;-63
2022/08/03 11:19:18;;;;;;;18.85;8.00;;;26.80;99.90;;;;;;5027130;28;20526;-60
2022/08/03 11:21:47;;;;;;;18.10;7.68;;;26.80;99.90;;;;;;5030591;28;20095;-61
2022/08/03 11:24:35;;;;;;;17.20;7.05;;;26.70;99.90;;;;;;5021052;28;20040;-61
2022/08/03 11:27:26;;;;;;;24.73;8.45;;;26.80;99.90;;;;;;5035148;28;20045;-58
2022/08/03 11:29:58;;;;;;;20.52;8.10;;;26.90;99.90;;;;;;5035793;28;20037;-62
2022/08/03 11:32:39;;;;;;;17.05;8.02;;;27.00;99.90;;;;;;5025394;28;20059;-62
2022/08/03 11:35:22;;;;;;;23.33;9.57;;;27.10;99.90;;;;;;5020103;28;20043;-62
2022/08/03 11:37:57;;;;;;;19.23;8.20;;;27.30;99.90;;;;;;5021839;28;20256;-61
2022/08/03 11:40:45;;;;;;;20.50;9.32;;;27.00;99.90;;;;;;5016867;28;20063;-61
2022/08/03 11:43:29;;;;;;;12.23;6.97;;;27.00;99.90;;;;;;5028333;28;20040;-59
2022/08/03 11:46:12;;;;;;;20.10;8.05;;;27.00;99.90;;;;;;5036717;28;20049;-58
2022/08/03 11:48:41;;;;;;;20.75;10.23;;;26.90;99.90;;;;;;5004214;28;20107;-61
2022/08/03 11:51:22;;;;;;;19.50;8.95;;;27.00;99.90;;;;;;5026206;28;20065;-60
2022/08/03 11:53:59;;;;;;;22.85;10.02;;;27.10;99.90;;;;;;5032920;28;20768;-62
2022/08/03 11:56:26;;;;;;;18.83;9.00;;;27.30;99.90;;;;;;5026249;28;20039;-61
2022/08/03 11:58:55;;;;;;;18.77;8.55;;;27.40;99.90;;;;;;5028120;28;20550;-61
2022/08/03 12:01:22;;;;;;;22.42;9.32;;;27.20;99.90;;;;;;5027931;28;20699;-62
2022/08/03 12:03:48;;;;;;;17.58;8.75;;;27.30;99.90;;;;;;5022439;28;20633;-61
2022/08/03 12:06:16;;;;;;;22.20;9.13;;;27.40;99.90;;;;;;5037476;28;20491;-64
2022/08/03 12:08:43;;;;;;;18.15;9.30;;;27.40;99.90;;;;;;5005263;28;20048;-61
2022/08/03 12:11:12;;;;;;;32.88;10.90;;;27.50;99.90;;;;;;5006173;28;20056;-61
2022/08/03 12:13:49;;;;;;;25.73;10.02;;;27.50;99.90;;;;;;5014360;28;20053;-61
2022/08/03 12:16:27;;;;;;;17.85;8.82;;;27.60;99.90;;;;;;5025819;28;20088;-61
2022/08/03 12:18:58;;;;;;;17.90;8.50;;;27.60;99.90;;;;;;5038770;28;20050;-59
2022/08/03 12:21:23;;;;;;;18.67;9.88;;;27.60;99.90;;;;;;5038899;28;20052;-60
2022/08/03 12:23:50;;;;;;;19.55;9.18;;;27.60;99.90;;;;;;5016109;28;20037;-61
2022/08/03 12:26:15;;;;;;;21.05;9.35;;;27.60;99.90;;;;;;5023922;28;20032;-63
2022/08/03 12:28:49;;;;;;;23.55;10.55;;;27.60;99.90;;;;;;5034242;28;20559;-61
2022/08/03 12:31:15;;;;;;;19.90;10.07;;;27.70;99.90;;;;;;5030456;28;20126;-61
2022/08/03 12:33:58;;;;;;;17.95;9.60;;;27.80;99.90;;;;;;5016462;28;20045;-62
2022/08/03 12:36:24;;;;;;;17.97;10.30;;;27.70;99.90;;;;;;5037718;28;20549;-61
2022/08/03 12:39:01;;;;;;;24.55;11.20;;;27.70;99.90;;;;;;5042742;28;20037;-62
2022/08/03 12:41:51;;;;;;;19.35;9.30;;;27.70;99.90;;;;;;5039295;28;20111;-62
2022/08/03 12:44:28;;;;;;;20.70;10.13;;;27.80;99.90;;;;;;5038181;28;20091;-61
2022/08/03 12:46:57;;;;;;;18.58;9.25;;;27.90;99.90;;;;;;5037355;28;20119;-59
2022/08/03 12:49:23;;;;;;;21.08;10.48;;;28.00;99.90;;;;;;5031847;28;20075;-61
2022/08/03 12:51:49;;;;;;;20.40;11.73;;;28.20;99.90;;;;;;5035351;28;20870;-61
2022/08/03 12:54:23;;;;;;;19.13;9.98;;;28.20;99.90;;;;;;5015362;28;20045;-62
2022/08/03 12:57:06;;;;;;;16.92;9.65;;;28.20;99.90;;;;;;5021349;28;20571;-62